Time;durP1;ratioP1;P1;durP2;ratioP2;P2;SDS_P1;SDS_P2;PMS_P1;PMS_P2;Temp;Humidity;BMP_temperature;BMP_pressure;BME280_temperature;BME280_humidity;BME280_pressure;Samples;Min_cycle;Max_cycle;Signal;HPM_P1;HPM_P2
2023/03/19 00:00:30;;;;;;;5.57;3.13;;;;;;;19.27;48.50;97153.13;4991697;28;20294;-84
2023/03/19 00:02:56;;;;;;;3.30;2.50;;;;;;;18.92;48.45;97091.66;5001184;28;20253;-84
2023/03/19 00:05:23;;;;;;;4.13;3.20;;;;;;;19.27;48.68;97157.38;5009003;28;20233;-84
2023/03/19 00:07:50;;;;;;;3.40;2.80;;;;;;;19.28;48.25;97156.56;4980478;28;20637;-85
2023/03/19 00:10:17;;;;;;;5.03;3.20;;;;;;;19.28;48.59;97154.88;4978233;28;20315;-84
2023/03/19 00:12:43;;;;;;;2.87;2.43;;;;;;;19.28;48.11;97161.66;4984872;28;20203;-84
2023/03/19 00:15:12;;;;;;;3.50;2.90;;;;;;;19.00;48.24;97108.03;4980585;28;20294;-84
2023/03/19 00:17:40;;;;;;;3.67;3.07;;;;;;;19.28;48.51;97151.47;4986483;28;20580;-82
2023/03/19 00:20:08;;;;;;;2.90;2.70;;;;;;;19.28;48.35;97152.34;4970009;28;20233;-84
2023/03/19 00:22:35;;;;;;;3.00;2.70;;;;;;;19.08;48.63;97121.88;4988584;28;20229;-84
2023/03/19 00:25:02;;;;;;;3.37;3.00;;;;;;;19.28;48.32;97151.47;4959404;28;20633;-84
2023/03/19 00:27:29;;;;;;;4.37;3.53;;;;;;;18.99;48.16;97096.13;4996362;28;20206;-84
2023/03/19 00:29:56;;;;;;;3.57;3.00;;;;;;;19.29;48.13;97148.09;4972437;28;20224;-84
2023/03/19 00:32:22;;;;;;;3.27;2.80;;;;;;;19.28;48.32;97152.34;4973756;28;20199;-84
2023/03/19 00:34:49;;;;;;;3.67;2.97;;;;;;;16.03;48.33;96589.63;4981642;28;20301;-84
2023/03/19 00:37:17;;;;;;;3.10;2.80;;;;;;;19.29;48.48;97158.28;4985433;28;20231;-84
2023/03/19 00:39:43;;;;;;;3.77;3.03;;;;;;;19.06;48.21;97123.50;5002096;28;20253;-85
2023/03/19 00:42:10;;;;;;;3.67;3.13;;;;;;;19.07;48.49;97117.63;4982766;28;20625;-84
2023/03/19 00:44:37;;;;;;;3.77;2.77;;;;;;;18.91;48.55;97095.00;4991373;28;20227;-84
2023/03/19 00:47:05;;;;;;;3.50;2.67;;;;;;;18.93;48.32;97098.47;4981717;28;20279;-86
2023/03/19 00:49:32;;;;;;;4.83;3.20;;;;;;;18.92;49.04;97104.41;4974884;28;20728;-84
2023/03/19 00:51:58;;;;;;;3.87;3.00;;;;;;;18.02;48.29;96945.28;4986458;28;20300;-84
2023/03/19 00:54:26;;;;;;;3.80;2.93;;;;;;;19.28;48.35;97164.19;4982025;28;20211;-84
2023/03/19 00:56:52;;;;;;;4.07;2.83;;;;;;;19.29;48.30;97168.47;4989430;28;20254;-84
2023/03/19 00:59:19;;;;;;;3.33;2.70;;;;;;;19.28;48.33;97159.09;4993650;28;20273;-84
2023/03/19 01:01:46;;;;;;;3.23;2.70;;;;;;;19.28;48.54;97159.09;4983005;28;20242;-84
2023/03/19 01:04:13;;;;;;;3.53;2.90;;;;;;;19.28;48.51;97156.56;4989021;28;20211;-83
2023/03/19 01:06:42;;;;;;;4.07;2.97;;;;;;;19.28;48.41;97154.00;4975139;28;20314;-84
2023/03/19 01:09:09;;;;;;;4.03;3.00;;;;;;;19.28;48.38;97156.56;4990523;28;20636;-81
2023/03/19 01:11:36;;;;;;;3.83;3.20;;;;;;;19.28;48.61;97165.06;4994330;28;20211;-84
2023/03/19 01:14:02;;;;;;;4.80;2.80;;;;;;;18.93;48.35;97101.03;4987194;28;20374;-84
2023/03/19 01:16:29;;;;;;;3.13;2.83;;;;;;;19.29;48.56;97155.72;4978463;28;20255;-85
2023/03/19 01:18:56;;;;;;;2.90;2.60;;;;;;;19.28;48.62;97157.44;5002916;28;20233;-85
2023/03/19 01:21:22;;;;;;;3.20;2.80;;;;;;;17.58;48.28;96924.22;4987198;28;20374;-83
2023/03/19 01:23:50;;;;;;;3.23;2.93;;;;;;;18.71;48.47;97055.31;4973407;28;20221;-82
2023/03/19 01:26:17;;;;;;;4.07;3.13;;;;;;;19.27;48.41;97149.75;4965375;28;20227;-84
2023/03/19 01:28:44;;;;;;;3.57;2.73;;;;;;;19.27;48.42;97155.69;4999486;28;20219;-83
2023/03/19 01:31:10;;;;;;;4.47;3.13;;;;;;;18.45;48.52;97010.34;4990600;28;21292;-84
2023/03/19 01:33:38;;;;;;;3.50;3.10;;;;;;;19.28;48.47;97154.00;4988616;28;20207;-84
2023/03/19 01:36:05;;;;;;;4.03;2.90;;;;;;;19.27;48.36;97155.69;4981107;28;20290;-84
2023/03/19 01:38:31;;;;;;;3.90;3.03;;;;;;;19.27;48.24;97152.28;4982495;28;20210;-85
2023/03/19 01:40:58;;;;;;;3.13;2.83;;;;;;;18.03;48.34;96964.81;4998577;28;20238;-84
2023/03/19 01:43:26;;;;;;;3.93;2.97;;;;;;;18.72;48.45;97060.47;4978046;28;20240;-84
2023/03/19 01:45:57;;;;;;;3.70;3.00;;;;;;;18.91;48.58;97107.72;4967251;28;20777;-84
2023/03/19 01:48:27;;;;;;;4.70;3.10;;;;;;;15.96;48.38;96585.13;4980368;28;20241;-84
2023/03/19 01:50:54;;;;;;;4.67;3.03;;;;;;;19.27;48.40;97158.22;4979608;28;20216;-86
2023/03/19 01:53:24;;;;;;;3.00;2.67;;;;;;;18.53;48.46;97037.75;5003758;28;20252;-84
2023/03/19 01:55:53;;;;;;;2.90;2.70;;;;;;;18.41;48.57;97016.16;4987160;28;20248;-85
2023/03/19 01:58:20;;;;;;;3.63;2.73;;;;;;;18.18;48.24;96978.03;4971337;28;20204;-84
2023/03/19 02:00:47;;;;;;;3.63;2.80;;;;;;;19.26;48.96;97165.78;4982325;28;20203;-82
2023/03/19 02:03:13;;;;;;;3.80;3.10;;;;;;;18.73;47.93;97081.66;4990034;28;20203;-85
2023/03/19 02:05:40;;;;;;;4.00;3.40;;;;;;;15.43;48.51;96510.56;5001163;23;20231;-91
2023/03/19 02:08:09;;;;;;;4.17;2.83;;;;;;;18.10;48.49;97009.13;4990813;28;20223;-91
2023/03/19 02:10:36;;;;;;;3.50;3.20;;;;;;;15.50;48.35;96564.00;4981832;28;20246;-91
2023/03/19 02:13:03;;;;;;;3.63;2.90;;;;;;;18.58;48.52;97055.72;4991416;28;20198;-90
2023/03/19 02:15:29;;;;;;;3.20;2.90;;;;;;;19.25;48.75;97172.59;5007217;28;20288;-91
2023/03/19 02:17:56;;;;;;;2.97;2.70;;;;;;;17.39;48.54;96892.22;4992682;28;20233;-91
2023/03/19 02:20:31;;;;;;;3.57;3.07;;;;;;;17.64;48.50;96891.41;5011971;28;20194;-91
2023/03/19 02:23:20;;;;;;;3.00;2.73;;;;;;;19.18;48.68;97167.22;4999137;28;20233;-91
2023/03/19 02:25:47;;;;;;;3.73;3.10;;;;;;;18.66;48.57;97070.44;4997979;28;20647;-90
2023/03/19 02:28:14;;;;;;;2.90;2.60;;;;;;;19.16;48.60;97156.13;5006068;28;20203;-91
2023/03/19 02:30:41;;;;;;;3.17;2.87;;;;;;;18.18;48.49;96985.66;4982108;28;20225;-90
2023/03/19 02:33:12;;;;;;;3.30;3.00;;;;;;;18.20;48.82;96996.75;4996757;28;20233;-90
2023/03/19 02:35:38;;;;;;;3.53;3.03;;;;;;;18.86;48.55;97102.50;4996745;28;20202;-91
2023/03/19 02:38:06;;;;;;;3.13;2.70;;;;;;;19.02;48.46;97137.84;4984743;28;20234;-91
2023/03/19 02:40:37;;;;;;;3.50;3.17;;;;;;;19.07;48.58;97141.38;5006188;28;20273;-90
2023/03/19 02:43:05;;;;;;;3.20;2.90;;;;;;;19.27;48.58;97176.06;4994963;28;20281;-91
2023/03/19 02:45:31;;;;;;;3.90;3.40;;;;;;;18.59;48.63;97063.41;4996698;28;20214;-91
2023/03/19 02:47:59;;;;;;;3.37;3.00;;;;;;;18.27;48.34;97011.41;5005257;28;20241;-91
2023/03/19 02:50:26;;;;;;;3.83;3.10;;;;;;;18.07;48.32;97004.78;5007425;28;20218;-91
2023/03/19 02:52:53;;;;;;;5.63;2.80;;;;;;;17.49;48.47;96889.22;4986969;28;20203;-91
2023/03/19 02:55:20;;;;;;;4.17;3.23;;;;;;;16.80;48.33;96761.44;5007656;28;20677;-90
2023/03/19 02:57:46;;;;;;;3.40;3.10;;;;;;;16.64;48.46;96754.94;4992884;28;20939;-90
2023/03/19 03:00:15;;;;;;;3.30;2.83;;;;;;;17.28;48.47;96872.31;4989826;28;20198;-90
2023/03/19 03:02:42;;;;;;;3.03;2.73;;;;;;;18.36;48.43;97045.59;5011436;28;20240;-91
2023/03/19 03:05:09;;;;;;;3.23;2.93;;;;;;;19.02;48.53;97147.16;4996064;28;20223;-91
2023/03/19 03:07:35;;;;;;;3.50;3.20;;;;;;;17.96;48.56;96969.63;4979476;28;20273;-90
2023/03/19 03:10:02;;;;;;;3.37;3.07;;;;;;;18.68;48.38;97093.41;5014349;28;20238;-90
2023/03/19 03:12:29;;;;;;;3.47;3.10;;;;;;;18.67;48.66;97120.53;4973565;28;20210;-91
2023/03/19 03:14:55;;;;;;;3.37;3.07;;;;;;;18.66;48.41;97110.28;4979347;28;20264;-88
2023/03/19 03:17:23;;;;;;;3.83;3.30;;;;;;;18.02;48.52;96995.25;5003789;28;20595;-91
2023/03/19 03:19:49;;;;;;;3.90;3.20;;;;;;;18.81;48.49;97128.63;4968814;28;20199;-90
2023/03/19 03:22:16;;;;;;;3.00;2.70;;;;;;;18.67;48.54;97110.34;5011162;28;20213;-91
2023/03/19 03:24:43;;;;;;;4.00;3.20;;;;;;;18.52;48.45;97084.38;4989208;28;20290;-91
2023/03/19 03:27:09;;;;;;;3.57;3.23;;;;;;;18.87;48.48;97165.34;4991700;28;20251;-90
2023/03/19 03:29:36;;;;;;;3.60;3.30;;;;;;;18.17;48.39;97024.63;4979785;28;20658;-91
2023/03/19 03:32:03;;;;;;;3.33;3.03;;;;;;;17.82;48.30;96960.66;5009330;28;20576;-91
2023/03/19 03:34:29;;;;;;;2.90;2.70;;;;;;;18.75;48.60;97121.66;4984753;28;20625;-90
2023/03/19 03:36:56;;;;;;;3.33;3.03;;;;;;;19.27;48.18;97213.44;4984513;28;20250;-89
2023/03/19 03:39:23;;;;;;;3.87;3.17;;;;;;;18.65;48.63;97121.28;5007519;28;20195;-91
2023/03/19 03:41:50;;;;;;;3.37;2.83;;;;;;;18.67;48.15;97109.47;4991590;28;20289;-90
2023/03/19 03:44:17;;;;;;;3.50;2.83;;;;;;;17.74;48.33;96960.38;5011309;28;20624;-90
2023/03/19 03:46:43;;;;;;;3.10;2.80;;;;;;;17.90;48.59;96992.28;4983666;28;20261;-88
2023/03/19 03:49:10;;;;;;;3.23;2.83;;;;;;;19.25;48.51;97218.44;4986319;28;21851;-91
2023/03/19 03:51:36;;;;;;;3.10;2.80;;;;;;;18.60;48.82;97095.69;4995290;28;20206;-90
2023/03/19 03:54:03;;;;;;;3.30;3.00;;;;;;;18.49;48.37;97078.31;4994558;28;20202;-91
2023/03/19 03:56:30;;;;;;;3.43;3.07;;;;;;;18.26;48.51;97036.78;4974139;28;20234;-91
2023/03/19 03:58:56;;;;;;;2.87;2.57;;;;;;;18.14;48.51;97029.63;4996164;28;20739;-89
2023/03/19 04:01:23;;;;;;;3.33;3.03;;;;;;;19.24;48.50;97226.00;5011351;28;20708;-90
2023/03/19 04:03:50;;;;;;;4.33;3.30;;;;;;;17.91;48.37;96991.47;4993765;28;20203;-91
2023/03/19 04:06:17;;;;;;;3.30;3.00;;;;;;;17.60;48.36;96926.03;4992530;28;20329;-91
2023/03/19 04:08:44;;;;;;;4.43;3.50;;;;;;;19.26;48.61;97215.06;4967735;28;20693;-91
2023/03/19 04:11:10;;;;;;;3.20;2.90;;;;;;;17.78;48.18;96964.78;5010090;28;20222;-91
2023/03/19 04:13:37;;;;;;;3.40;3.10;;;;;;;18.42;48.47;97079.78;4986498;28;20210;-90
2023/03/19 04:16:04;;;;;;;3.53;3.10;;;;;;;18.85;48.62;97150.81;4986635;28;20229;-91
2023/03/19 04:18:31;;;;;;;3.30;3.00;;;;;;;18.21;48.37;97031.53;4994433;28;20243;-91
2023/03/19 04:20:57;;;;;;;3.57;3.00;;;;;;;18.52;48.22;97126.75;4987456;28;20794;-89
2023/03/19 04:23:24;;;;;;;3.30;3.00;;;;;;;18.34;48.46;97067.56;4999944;28;20310;-92
2023/03/19 04:25:51;;;;;;;3.53;2.93;;;;;;;18.01;48.37;97024.06;5010842;28;20203;-89
2023/03/19 04:28:17;;;;;;;3.33;3.03;;;;;;;18.60;48.46;97115.16;5002730;28;20605;-91
2023/03/19 04:30:44;;;;;;;3.40;2.90;;;;;;;18.82;48.28;97148.16;4994109;28;20709;-91
2023/03/19 04:33:11;;;;;;;3.37;3.07;;;;;;;18.85;48.42;97161.88;5001530;28;20589;-90
2023/03/19 04:35:38;;;;;;;5.50;3.10;;;;;;;18.61;48.64;97121.97;4990045;28;20593;-91
2023/03/19 04:38:05;;;;;;;3.20;2.90;;;;;;;18.57;48.52;97115.06;4994696;28;20296;-91
2023/03/19 04:40:31;;;;;;;3.23;2.93;;;;;;;18.19;48.64;97058.63;4986027;28;20260;-91
2023/03/19 04:42:58;;;;;;;3.53;3.17;;;;;;;18.37;48.53;97090.56;4983139;28;20211;-88
2023/03/19 04:45:25;;;;;;;3.57;3.27;;;;;;;18.41;48.51;97105.19;4993718;28;20202;-91
2023/03/19 04:47:52;;;;;;;3.03;2.83;;;;;;;19.21;48.48;97231.00;4990368;28;20280;-91
2023/03/19 04:50:19;;;;;;;3.40;3.00;;;;;;;17.51;48.45;96958.72;5025655;28;20291;-90
2023/03/19 04:52:45;;;;;;;3.13;2.83;;;;;;;18.58;48.24;97120.22;4971174;28;20257;-90
2023/03/19 04:55:12;;;;;;;3.57;3.17;;;;;;;18.66;48.28;97144.25;4992573;28;20290;-91
2023/03/19 04:57:39;;;;;;;3.20;2.90;;;;;;;19.28;48.49;97248.28;4983150;28;20313;-91
2023/03/19 05:00:07;;;;;;;3.50;3.03;;;;;;;18.62;48.42;97137.31;5009942;28;20634;-90
2023/03/19 05:02:34;;;;;;;3.60;3.30;;;;;;;17.13;48.25;96880.25;4981801;28;20290;-91
2023/03/19 05:05:01;;;;;;;3.43;3.13;;;;;;;18.88;49.05;97181.47;4993535;28;20210;-90
2023/03/19 05:07:27;;;;;;;2.90;2.70;;;;;;;17.71;48.87;96977.22;5002990;28;20226;-91
2023/03/19 05:09:54;;;;;;;3.50;3.20;;;;;;;18.77;48.60;97163.28;5010058;28;20617;-89
2023/03/19 05:12:21;;;;;;;3.80;3.00;;;;;;;18.73;48.25;97170.75;4977590;28;20665;-90
2023/03/19 05:14:47;;;;;;;3.77;3.00;;;;;;;18.65;48.43;97172.19;4984876;28;20233;-91
2023/03/19 05:17:14;;;;;;;3.40;3.10;;;;;;;18.74;48.66;97175.06;5005561;28;20230;-90
2023/03/19 05:19:41;;;;;;;3.80;3.50;;;;;;;18.40;48.40;97141.59;5010287;28;20611;-91
2023/03/19 05:22:07;;;;;;;3.87;3.47;;;;;;;16.84;48.93;96891.00;5004128;28;20248;-90
2023/03/19 05:24:35;;;;;;;3.77;3.30;;;;;;;18.55;48.49;97147.22;5006937;28;20658;-91
2023/03/19 05:27:01;;;;;;;3.30;3.00;;;;;;;18.00;48.50;97065.56;4968985;28;20223;-91
2023/03/19 05:29:28;;;;;;;3.63;3.20;;;;;;;18.21;48.68;97101.91;4990270;28;20227;-91
2023/03/19 05:31:55;;;;;;;3.37;3.07;;;;;;;19.22;48.60;97276.91;4981176;28;20202;-91
2023/03/19 05:34:22;;;;;;;3.40;3.10;;;;;;;19.02;48.50;97247.34;5011098;28;20198;-91
2023/03/19 05:36:48;;;;;;;3.40;3.10;;;;;;;18.63;48.54;97171.25;4973344;28;20245;-91
2023/03/19 05:39:15;;;;;;;4.20;3.60;;;;;;;18.12;48.42;97089.72;4992480;28;20264;-91
2023/03/19 05:41:42;;;;;;;3.27;2.90;;;;;;;17.84;48.21;97041.25;5005373;28;20281;-90
2023/03/19 05:44:08;;;;;;;3.13;2.83;;;;;;;17.54;48.45;96991.88;4987134;28;20657;-91
2023/03/19 05:46:35;;;;;;;3.00;2.70;;;;;;;18.82;48.48;97215.22;5002793;28;20235;-91
2023/03/19 05:49:02;;;;;;;3.23;2.93;;;;;;;18.53;48.55;97172.59;4976433;28;20658;-90
2023/03/19 05:51:28;;;;;;;2.97;2.70;;;;;;;19.02;48.65;97272.81;4993254;28;20311;-92
2023/03/19 05:53:55;;;;;;;3.43;3.13;;;;;;;18.54;48.94;97194.72;5016442;28;20579;-90
2023/03/19 05:56:21;;;;;;;3.13;2.80;;;;;;;18.85;48.30;97247.56;4981166;28;20225;-91
2023/03/19 05:58:48;;;;;;;3.13;2.83;;;;;;;18.84;48.47;97241.63;4972021;28;20238;-89
2023/03/19 06:01:15;;;;;;;3.57;3.20;;;;;;;19.21;48.45;97305.75;4989359;28;20203;-89
2023/03/19 06:03:41;;;;;;;3.80;3.00;;;;;;;17.85;48.48;97081.09;4999510;28;20293;-88
2023/03/19 06:06:09;;;;;;;5.10;3.23;;;;;;;18.15;48.75;97155.09;4996355;28;20638;-91
2023/03/19 06:08:37;;;;;;;3.40;3.10;;;;;;;18.63;48.73;97210.31;4976843;28;20210;-91
2023/03/19 06:11:04;;;;;;;3.60;3.27;;;;;;;18.64;48.83;97219.69;5010851;28;20249;-92
2023/03/19 06:13:30;;;;;;;6.07;3.50;;;;;;;17.70;49.36;97066.94;4992353;28;20203;-86
2023/03/19 06:15:57;;;;;;;4.77;3.80;;;;;;;18.67;48.97;97227.41;5012915;28;20273;-89
2023/03/19 06:18:24;;;;;;;5.17;3.83;;;;;;;18.96;49.52;97287.88;5008348;28;20397;-89
2023/03/19 06:20:51;;;;;;;5.90;3.90;;;;;;;18.96;48.89;97284.47;5007350;28;20289;-89
2023/03/19 06:23:18;;;;;;;5.93;3.60;;;;;;;17.45;49.21;97029.63;5002626;28;20211;-90
2023/03/19 06:25:45;;;;;;;10.63;4.10;;;;;;;18.83;49.32;97274.66;4984842;28;20240;-91
2023/03/19 06:28:11;;;;;;;6.77;3.77;;;;;;;17.92;49.00;97127.94;4996745;28;20229;-89
2023/03/19 06:30:38;;;;;;;7.90;3.93;;;;;;;18.74;49.28;97262.44;4987860;28;20215;-87
2023/03/19 06:33:05;;;;;;;4.60;3.83;;;;;;;19.17;49.20;97338.69;4974263;28;20638;-91
2023/03/19 06:35:31;;;;;;;6.73;3.87;;;;;;;19.33;49.19;97369.06;5008313;28;20285;-90
2023/03/19 06:37:58;;;;;;;8.77;4.10;;;;;;;18.42;48.85;97216.31;4989653;28;20305;-90
2023/03/19 06:40:25;;;;;;;7.83;5.07;;;;;;;18.74;48.84;97282.81;4994801;28;20199;-89
2023/03/19 06:42:51;;;;;;;10.23;8.87;;;;;;;18.50;47.28;97248.00;4994099;28;20226;-90
2023/03/19 06:45:19;;;;;;;11.03;9.67;;;;;;;18.64;46.33;97270.56;5001340;28;20218;-89
2023/03/19 06:47:48;;;;;;;13.50;9.33;;;;;;;18.67;45.51;97274.91;4987931;28;20228;-90
2023/03/19 06:50:17;;;;;;;13.70;10.73;;;;;;;18.66;45.05;97288.44;5000411;28;20222;-91
2023/03/19 06:52:44;;;;;;;12.67;9.97;;;;;;;18.81;45.24;97320.44;5007090;28;20285;-88
2023/03/19 06:55:11;;;;;;;11.60;10.03;;;;;;;18.33;45.52;97237.16;4965804;28;20236;-90
2023/03/19 06:57:38;;;;;;;11.90;9.83;;;;;;;18.14;46.07;97214.38;4973043;28;20231;-90
2023/03/19 07:00:05;;;;;;;18.40;9.27;;;;;;;18.54;46.15;97285.44;5006163;28;20292;-91
2023/03/19 07:02:31;;;;;;;12.70;10.03;;;;;;;16.54;46.40;96952.38;4969298;28;20800;-90
2023/03/19 07:04:58;;;;;;;14.50;9.33;;;;;;;18.70;46.59;97328.47;5005858;28;20206;-90
2023/03/19 07:07:25;;;;;;;10.93;8.77;;;;;;;18.71;46.84;97336.16;4995555;28;20253;-89
2023/03/19 07:09:51;;;;;;;10.23;8.50;;;;;;;18.53;47.27;97304.09;4994050;28;20237;-91
2023/03/19 07:12:18;;;;;;;9.73;8.30;;;;;;;18.09;47.13;97239.63;4988367;28;20230;-88
2023/03/19 07:14:44;;;;;;;10.60;8.70;;;;;;;18.25;47.09;97263.97;4997579;28;20202;-91
2023/03/19 07:17:14;;;;;;;11.90;8.37;;;;;;;18.00;46.99;97218.94;4968834;28;20228;-91
2023/03/19 07:19:41;;;;;;;11.67;7.43;;;;;;;18.53;47.59;97322.75;4968111;28;20234;-92
2023/03/19 07:22:22;;;;;;;13.17;7.50;;;;;;;17.65;47.64;97157.41;4973968;28;20745;-90
2023/03/19 07:24:50;;;;;;;9.23;7.20;;;;;;;18.37;47.31;97278.81;4971963;28;20219;-89
2023/03/19 07:27:17;;;;;;;11.37;7.23;;;;;;;17.87;47.27;97187.91;4978085;28;20259;-89
2023/03/19 07:29:43;;;;;;;12.33;6.43;;;;;;;18.91;47.06;97370.00;5004077;28;20234;-89
2023/03/19 07:32:10;;;;;;;8.70;6.07;;;;;;;18.36;47.58;97285.59;4984312;28;20257;-91
2023/03/19 07:34:36;;;;;;;6.77;5.50;;;;;;;18.67;47.58;97338.53;4972733;28;20207;-90
2023/03/19 07:37:03;;;;;;;8.10;5.87;;;;;;;19.17;47.30;97423.66;4993090;28;20313;-89
2023/03/19 07:39:29;;;;;;;7.37;5.47;;;;;;;19.18;47.12;97433.00;5009020;28;20214;-90
2023/03/19 07:41:56;;;;;;;9.47;5.67;;;;;;;18.14;47.36;97249.97;5008626;28;20289;-89
2023/03/19 07:44:23;;;;;;;13.43;5.37;;;;;;;19.07;47.22;97426.63;4976057;28;20207;-89
2023/03/19 07:46:49;;;;;;;10.40;5.00;;;;;;;18.47;47.80;97325.06;4992838;28;20230;-90
2023/03/19 07:49:16;;;;;;;7.43;5.10;;;;;;;18.86;49.04;97385.09;4993018;28;20264;-90
2023/03/19 07:51:43;;;;;;;7.83;4.80;;;;;;;18.98;50.16;97413.56;5009852;28;20697;-90
2023/03/19 07:54:09;;;;;;;7.00;5.50;;;;;;;18.89;50.98;97392.84;4993973;28;20206;-90
2023/03/19 07:56:36;;;;;;;6.87;5.90;;;;;;;18.62;50.80;97340.06;4990597;28;20228;-87
2023/03/19 07:59:03;;;;;;;7.30;6.10;;;;;;;18.50;51.07;97321.78;4993884;28;20206;-88
2023/03/19 08:01:29;;;;;;;10.33;7.53;;;;;;;18.33;49.80;97294.78;4990390;28;20653;-89
2023/03/19 08:03:56;;;;;;;10.57;8.10;;;;;;;18.94;48.95;97403.22;4970989;28;20254;-91
2023/03/19 08:06:22;;;;;;;9.03;8.10;;;;;;;19.18;48.98;97443.19;5107848;23;20232;-86
2023/03/19 08:08:49;;;;;;;9.67;8.67;;;;;;;19.14;48.55;97438.81;4983522;28;20605;-84
2023/03/19 08:11:16;;;;;;;11.83;8.83;;;;;;;18.81;48.73;97393.38;4968943;28;20224;-85
2023/03/19 08:13:43;;;;;;;9.30;8.13;;;;;;;17.21;48.24;97115.00;4963683;28;20203;-85
2023/03/19 08:16:10;;;;;;;9.07;8.07;;;;;;;13.07;48.01;96424.94;4944460;28;20215;-85
2023/03/19 08:18:37;;;;;;;9.00;7.83;;;;;;;18.98;48.51;97444.13;4938275;29;20240;-84
2023/03/19 08:21:03;;;;;;;9.03;8.07;;;;;;;18.94;48.55;97446.50;4950886;28;20230;-85
2023/03/19 08:23:30;;;;;;;10.70;8.13;;;;;;;18.90;48.79;97452.28;4954863;28;20208;-85
2023/03/19 08:25:57;;;;;;;11.17;8.33;;;;;;;18.87;48.81;97457.28;4953597;28;20204;-86
2023/03/19 08:28:24;;;;;;;9.30;8.27;;;;;;;18.67;48.66;97419.97;4945324;28;20245;-85
2023/03/19 08:30:50;;;;;;;11.30;9.27;;;;;;;18.45;49.27;97390.31;4947381;28;20746;-85
2023/03/19 08:33:17;;;;;;;15.33;8.20;;;;;;;18.76;48.64;97448.34;4932757;29;20204;-85
2023/03/19 08:35:44;;;;;;;10.37;8.80;;;;;;;18.71;48.82;97445.63;4955988;28;20739;-84
2023/03/19 08:38:10;;;;;;;10.73;8.43;;;;;;;18.69;49.35;97434.53;4949263;28;20224;-84
2023/03/19 08:40:37;;;;;;;11.03;8.10;;;;;;;18.68;49.20;97435.31;4942020;28;20205;-85
2023/03/19 08:43:04;;;;;;;11.80;8.03;;;;;;;17.29;49.40;97206.72;4946061;28;20594;-84
2023/03/19 08:45:30;;;;;;;9.57;8.30;;;;;;;17.63;49.43;97273.34;4927098;28;20264;-85
2023/03/19 08:47:57;;;;;;;9.27;7.70;;;;;;;18.40;49.47;97411.28;4933313;29;20233;-85
2023/03/19 08:50:23;;;;;;;9.63;7.70;;;;;;;18.65;49.92;97455.56;4953177;28;20208;-85
2023/03/19 08:52:50;;;;;;;9.03;7.70;;;;;;;18.55;49.83;97445.84;4958975;28;20208;-86
2023/03/19 08:55:17;;;;;;;7.87;6.90;;;;;;;17.61;49.45;97287.66;4953814;28;20638;-87
2023/03/19 08:57:43;;;;;;;10.20;7.63;;;;;;;17.53;49.78;97282.28;4919402;29;20227;-85
2023/03/19 09:00:11;;;;;;;9.00;7.03;;;;;;;18.35;49.57;97418.69;4939206;29;20286;-85
2023/03/19 09:02:39;;;;;;;11.33;7.33;;;;;;;18.38;49.52;97431.56;4963901;28;20220;-85
2023/03/19 09:05:06;;;;;;;9.57;6.63;;;;;;;18.76;49.79;97489.06;4950045;28;20293;-86
2023/03/19 09:07:32;;;;;;;8.43;6.90;;;;;;;18.76;49.37;97484.84;4954710;28;20332;-85
2023/03/19 09:09:59;;;;;;;10.07;6.70;;;;;;;18.24;49.43;97391.97;4958462;28;20264;-86
2023/03/19 09:12:25;;;;;;;9.73;6.60;;;;;;;17.78;49.41;97315.50;4924914;28;20230;-86
2023/03/19 09:14:52;;;;;;;7.47;6.67;;;;;;;18.23;49.30;97386.81;4948941;28;20268;-85
2023/03/19 09:17:19;;;;;;;7.90;6.20;;;;;;;18.85;49.25;97497.94;4951729;28;20263;-85
2023/03/19 09:19:45;;;;;;;7.37;5.87;;;;;;;18.65;49.26;97463.19;4956414;28;20210;-83
2023/03/19 09:22:12;;;;;;;9.33;6.80;;;;;;;18.88;49.49;97492.97;4954831;28;20208;-83
2023/03/19 09:24:38;;;;;;;7.70;6.17;;;;;;;16.59;49.29;97124.28;4950657;29;20220;-85
2023/03/19 09:27:06;;;;;;;8.83;6.50;;;;;;;18.92;49.32;97502.47;4938383;29;20228;-85
2023/03/19 09:29:35;;;;;;;8.10;6.23;;;;;;;18.59;49.45;97473.13;4957120;28;20213;-85
2023/03/19 09:32:05;;;;;;;9.90;6.57;;;;;;;18.32;49.26;97435.53;4930726;29;20263;-87
2023/03/19 09:34:31;;;;;;;7.33;6.37;;;;;;;18.21;49.36;97371.50;4955228;28;20247;-84
2023/03/19 09:36:58;;;;;;;8.53;6.00;;;;;;;18.62;49.37;97445.25;4956671;28;20722;-85
2023/03/19 09:39:25;;;;;;;8.67;6.33;;;;;;;17.35;49.15;97219.69;4951211;28;20203;-85
2023/03/19 09:42:14;;;;;;;8.00;5.87;;;;;;;18.99;49.12;97504.47;4933648;29;20216;-85
2023/03/19 09:44:44;;;;;;;6.03;5.30;;;;;;;18.67;49.29;97445.44;4950631;28;20242;-83
2023/03/19 09:47:27;;;;;;;6.13;5.53;;;;;;;19.04;49.01;97509.72;4919498;28;20279;-85
2023/03/19 09:49:56;;;;;;;8.03;5.83;;;;;;;19.03;49.16;97502.88;4924720;29;20204;-87
2023/03/19 09:52:26;;;;;;;8.10;5.43;;;;;;;19.04;49.38;97502.94;4947927;28;20228;-84
2023/03/19 09:54:52;;;;;;;8.37;5.70;;;;;;;18.47;49.52;97398.00;4950707;28;20211;-82
2023/03/19 09:57:19;;;;;;;7.30;5.30;;;;;;;19.08;49.16;97498.84;4931759;28;20257;-85
2023/03/19 09:59:46;;;;;;;9.87;5.30;;;;;;;18.36;49.12;97374.66;4942149;28;20210;-88
2023/03/19 10:02:39;;;;;;;9.20;4.97;;;;;;;18.11;49.10;97329.56;4936711;28;20212;-85
2023/03/19 10:05:21;;;;;;;7.93;5.23;;;;;;;18.86;49.61;97458.94;4947389;28;20218;-82
2023/03/19 10:08:08;;;;;;;6.57;4.70;;;;;;;19.11;49.36;97501.50;4932126;28;20231;-85
2023/03/19 10:11:08;;;;;;;8.03;4.90;;;;;;;19.11;49.27;97493.84;4954798;28;20660;-86
2023/03/19 10:14:15;;;;;;;7.73;5.27;;;;;;;19.11;49.12;97507.47;4946263;28;20694;-83
2023/03/19 10:16:43;;;;;;;5.80;4.67;;;;;;;19.11;49.03;97501.50;4937993;28;20236;-84
2023/03/19 10:19:09;;;;;;;6.37;4.63;;;;;;;18.13;49.01;97338.13;4930223;29;20212;-84
2023/03/19 10:21:43;;;;;;;6.93;5.07;;;;;;;19.11;49.25;97507.47;4930634;28;20196;-85
2023/03/19 10:24:12;;;;;;;5.83;4.53;;;;;;;19.13;49.03;97507.53;4945984;28;20207;-85
2023/03/19 10:26:39;;;;;;;5.13;4.30;;;;;;;18.65;48.45;97419.06;4926544;29;20501;-84
2023/03/19 10:29:25;;;;;;;4.77;4.27;;;;;;;17.99;49.06;97323.13;4945092;28;20219;-85
2023/03/19 10:31:59;;;;;;;6.30;4.40;;;;;;;19.14;48.67;97504.16;4940371;28;20306;-85
2023/03/19 10:34:36;;;;;;;6.93;4.80;;;;;;;19.13;48.91;97508.38;4956440;28;20296;-85
2023/03/19 10:37:05;;;;;;;8.53;4.97;;;;;;;18.23;49.01;97348.66;4967591;28;20223;-84
2023/03/19 10:39:32;;;;;;;6.07;4.13;;;;;;;18.02;48.88;97308.88;4943927;28;20206;-86
2023/03/19 10:42:24;;;;;;;5.03;4.20;;;;;;;19.17;48.93;97506.84;4922681;29;20665;-85
2023/03/19 10:44:58;;;;;;;6.10;4.57;;;;;;;19.16;48.91;97502.56;4955082;28;20212;-83
2023/03/19 10:47:25;;;;;;;6.10;4.23;;;;;;;17.56;48.88;97233.28;4955496;28;20260;-87
2023/03/19 10:49:51;;;;;;;6.23;4.40;;;;;;;19.16;49.14;97500.00;4927694;29;20204;-84
2023/03/19 10:52:29;;;;;;;7.17;4.00;;;;;;;18.89;48.96;97456.50;4956861;28;20228;-84
2023/03/19 10:55:01;;;;;;;5.40;4.10;;;;;;;19.16;48.77;97505.94;4935102;28;20211;-85
2023/03/19 10:57:28;;;;;;;6.40;4.63;;;;;;;19.17;49.26;97499.19;4937883;29;20232;-84
2023/03/19 10:59:54;;;;;;;5.73;4.10;;;;;;;17.50;49.15;97213.56;4930208;28;20257;-86
2023/03/19 11:02:26;;;;;;;7.13;4.40;;;;;;;18.87;49.12;97455.59;4955565;29;20287;-85
2023/03/19 11:05:11;;;;;;;4.30;3.40;;;;;;;19.19;49.10;97507.78;4921851;29;20231;-85
2023/03/19 11:07:37;;;;;;;5.53;3.87;;;;;;;18.17;49.20;97327.28;4956724;28;20236;-85
2023/03/19 11:10:08;;;;;;;4.60;3.60;;;;;;;17.71;48.89;97238.97;4942336;29;20231;-84
2023/03/19 11:12:36;;;;;;;4.47;3.80;;;;;;;19.10;49.04;97485.34;4937104;28;20726;-84
2023/03/19 11:15:06;;;;;;;4.10;3.70;;;;;;;19.19;48.86;97492.47;4944052;28;20209;-81
2023/03/19 11:17:39;;;;;;;6.43;4.13;;;;;;;19.19;48.84;97493.31;4959715;28;20256;-83
2023/03/19 11:20:19;;;;;;;4.73;3.40;;;;;;;19.20;48.95;97496.75;4956586;28;20243;-84
2023/03/19 11:22:46;;;;;;;3.73;3.40;;;;;;;18.43;49.04;97356.28;4951321;28;20283;-85
2023/03/19 11:25:18;;;;;;;6.20;3.90;;;;;;;19.20;48.84;97484.91;4952316;28;20211;-84
2023/03/19 11:27:57;;;;;;;8.27;4.10;;;;;;;19.19;48.92;97488.22;4958116;28;20262;-84
2023/03/19 11:30:23;;;;;;;3.80;3.43;;;;;;;18.14;49.01;97304.25;4961335;28;20213;-84
2023/03/19 11:33:02;;;;;;;3.97;3.20;;;;;;;19.20;48.77;97478.94;4938647;29;20312;-84
2023/03/19 11:35:35;;;;;;;4.27;3.57;;;;;;;17.35;48.70;97153.66;4962821;28;20203;-84